Time;durP1;ratioP1;P1;durP2;ratioP2;P2;SDS_P1;SDS_P2;PMS_P1;PMS_P2;Temp;Humidity;BMP_temperature;BMP_pressure;BME280_temperature;BME280_humidity;BME280_pressure;Samples;Min_cycle;Max_cycle;Signal;HPM_P1;HPM_P2
2022/09/26 00:01:26;;;;;;;6.78;3.10;;;10.90;99.90;;;;;;4978766;28;20049;-71
2022/09/26 00:04:04;;;;;;;6.43;2.38;;;10.90;99.90;;;;;;4995687;28;20050;-71
2022/09/26 00:06:30;;;;;;;7.07;3.78;;;10.90;99.90;;;;;;4978473;28;20073;-70
2022/09/26 00:08:56;;;;;;;7.05;3.83;;;10.80;99.90;;;;;;4995712;28;20042;-70
2022/09/26 00:11:28;;;;;;;7.65;4.13;;;10.80;99.90;;;;;;4995415;28;20050;-69
2022/09/26 00:13:56;;;;;;;7.45;4.20;;;10.80;99.90;;;;;;4995175;28;20034;-72
2022/09/26 00:16:22;;;;;;;6.63;3.28;;;10.70;99.90;;;;;;4995537;28;20371;-71
2022/09/26 00:18:49;;;;;;;7.95;3.20;;;11.00;99.90;;;;;;4995365;28;20047;-70
2022/09/26 00:21:15;;;;;;;7.68;2.90;;;10.80;99.90;;;;;;4995559;28;20058;-71
2022/09/26 00:23:41;;;;;;;6.10;2.95;;;10.70;99.90;;;;;;4978363;28;20057;-70
2022/09/26 00:26:08;;;;;;;11.10;3.67;;;10.70;99.90;;;;;;4995613;28;20046;-70
2022/09/26 00:28:34;;;;;;;12.98;10.55;;;10.70;99.90;;;;;;4978226;28;20042;-69
2022/09/26 00:31:09;;;;;;;10.38;8.15;;;10.70;99.90;;;;;;4995141;28;20042;-71
2022/09/26 00:33:35;;;;;;;11.18;6.22;;;10.70;99.90;;;;;;4995443;28;20128;-71
2022/09/26 00:36:01;;;;;;;6.20;3.97;;;10.70;99.90;;;;;;4995376;28;20054;-69
2022/09/26 00:38:27;;;;;;;7.90;4.22;;;10.70;99.90;;;;;;4998198;28;20046;-71
2022/09/26 00:40:53;;;;;;;9.05;5.30;;;10.70;99.90;;;;;;4999338;28;20371;-70
2022/09/26 00:43:48;;;;;;;7.55;4.07;;;10.70;99.90;;;;;;4965464;28;20455;-71
2022/09/26 00:46:17;;;;;;;6.47;4.15;;;10.70;99.90;;;;;;5018849;28;20057;-70
2022/09/26 00:48:46;;;;;;;7.90;3.47;;;10.70;99.90;;;;;;5001981;28;20060;-69
2022/09/26 00:51:12;;;;;;;6.43;3.50;;;10.60;99.90;;;;;;5018830;28;20077;-70
2022/09/26 00:53:42;;;;;;;9.70;4.13;;;10.60;99.90;;;;;;5018239;28;20089;-71
2022/09/26 00:56:16;;;;;;;9.10;4.03;;;10.60;99.90;;;;;;5001573;28;20439;-70
2022/09/26 00:58:48;;;;;;;13.18;7.10;;;10.60;99.90;;;;;;5009179;28;20046;-69
2022/09/26 01:01:15;;;;;;;33.05;18.92;;;10.70;99.90;;;;;;4998969;28;20046;-70
2022/09/26 01:03:43;;;;;;;12.45;6.63;;;10.60;99.90;;;;;;4998263;28;20046;-70
2022/09/26 01:06:09;;;;;;;6.22;3.10;;;10.60;99.90;;;;;;4999446;28;20058;-70
2022/09/26 01:08:39;;;;;;;8.95;3.50;;;10.60;99.90;;;;;;4982035;28;20371;-70
2022/09/26 01:11:06;;;;;;;6.70;2.67;;;10.50;99.90;;;;;;4982208;28;20065;-70
2022/09/26 01:13:35;;;;;;;6.22;2.88;;;10.50;99.90;;;;;;4999095;28;20050;-71
2022/09/26 01:16:01;;;;;;;7.93;3.58;;;10.50;99.90;;;;;;4998519;28;20054;-69
2022/09/26 01:18:27;;;;;;;5.88;3.25;;;10.50;99.90;;;;;;4998486;28;20374;-71
2022/09/26 01:21:18;;;;;;;7.90;2.97;;;10.50;99.90;;;;;;4998520;28;20411;-69
2022/09/26 01:23:54;;;;;;;10.18;3.08;;;10.50;99.90;;;;;;4998527;28;20368;-71
2022/09/26 01:26:29;;;;;;;7.90;3.35;;;10.50;99.90;;;;;;4998826;28;20077;-69
2022/09/26 01:29:04;;;;;;;7.68;2.95;;;10.50;99.90;;;;;;4987989;28;20101;-69
2022/09/26 01:32:47;;;;;;;5.53;2.70;;;10.50;99.90;;;;;;4998578;28;20050;-69
2022/09/26 01:34:57;;;;;;;8.38;3.17;;;10.50;99.90;;;;;;4998196;28;20050;-70
2022/09/26 01:37:43;;;;;;;7.00;2.70;;;10.50;99.90;;;;;;4998322;28;20054;-69
2022/09/26 01:40:39;;;;;;;7.45;2.58;;;10.60;99.90;;;;;;4998217;28;20054;-70
2022/09/26 01:43:14;;;;;;;6.95;2.90;;;10.60;99.90;;;;;;4997914;28;20045;-70
2022/09/26 01:45:53;;;;;;;7.60;2.80;;;10.60;99.90;;;;;;4980555;28;20069;-69
2022/09/26 01:48:32;;;;;;;8.57;3.08;;;10.70;99.90;;;;;;4997888;28;20042;-71
2022/09/26 01:51:20;;;;;;;5.25;2.40;;;10.70;99.90;;;;;;4998065;28;20052;-71
2022/09/26 01:54:22;;;;;;;6.70;3.70;;;10.70;99.90;;;;;;4998128;28;20056;-71
2022/09/26 01:56:50;;;;;;;6.75;3.25;;;10.70;99.90;;;;;;4976539;28;20375;-69
2022/09/26 01:59:21;;;;;;;6.15;2.63;;;10.70;99.90;;;;;;4997853;28;20046;-69
2022/09/26 02:01:50;;;;;;;7.75;3.03;;;10.80;99.90;;;;;;4998086;28;20043;-70
2022/09/26 02:04:24;;;;;;;6.70;2.78;;;10.80;99.90;;;;;;4997692;28;20134;-69
2022/09/26 02:06:59;;;;;;;6.65;2.95;;;10.80;99.90;;;;;;4980547;28;20415;-69
2022/09/26 02:09:43;;;;;;;9.15;2.95;;;10.90;99.90;;;;;;4997866;28;20113;-71
2022/09/26 02:12:15;;;;;;;7.35;2.72;;;10.80;99.90;;;;;;4997587;28;20125;-70
2022/09/26 02:14:42;;;;;;;7.18;3.60;;;10.90;99.90;;;;;;4960860;28;20547;-70
2022/09/26 02:17:16;;;;;;;7.20;2.90;;;10.80;99.90;;;;;;4961659;28;20058;-71
2022/09/26 02:19:45;;;;;;;8.27;2.83;;;10.90;99.90;;;;;;4978046;28;20366;-70
2022/09/26 02:22:10;;;;;;;7.70;3.20;;;10.90;99.90;;;;;;4978479;28;20062;-71
2022/09/26 02:24:36;;;;;;;8.73;3.10;;;10.90;99.90;;;;;;4961097;28;20117;-71
2022/09/26 02:27:02;;;;;;;8.73;2.80;;;10.90;99.90;;;;;;4990346;28;20049;-70
2022/09/26 02:29:28;;;;;;;6.22;2.80;;;10.90;99.90;;;;;;4996936;28;20129;-70
2022/09/26 02:32:11;;;;;;;6.65;2.78;;;10.90;99.90;;;;;;4996105;28;20142;-70
2022/09/26 02:34:40;;;;;;;6.43;2.80;;;10.90;99.90;;;;;;4997189;28;20578;-71
2022/09/26 02:37:07;;;;;;;7.40;3.20;;;11.00;99.90;;;;;;4996451;28;20104;-71
2022/09/26 02:39:33;;;;;;;8.32;3.17;;;10.90;99.90;;;;;;4997486;28;20125;-70
2022/09/26 02:42:20;;;;;;;11.13;3.30;;;10.90;99.90;;;;;;4996962;28;20149;-71
2022/09/26 02:45:24;;;;;;;9.35;3.20;;;10.90;99.90;;;;;;4997058;28;20068;-71
2022/09/26 02:47:56;;;;;;;7.65;3.25;;;10.90;99.90;;;;;;4997329;28;20205;-71
2022/09/26 02:50:46;;;;;;;7.25;3.10;;;10.90;99.90;;;;;;4997673;28;20068;-69
2022/09/26 02:53:39;;;;;;;9.40;3.45;;;10.90;99.90;;;;;;4995723;28;20054;-69
2022/09/26 02:56:10;;;;;;;9.20;3.10;;;10.90;99.90;;;;;;4996692;28;20111;-70
2022/09/26 02:58:51;;;;;;;13.45;4.05;;;10.90;99.90;;;;;;4996887;28;20712;-69
2022/09/26 03:01:30;;;;;;;9.50;3.30;;;10.90;99.90;;;;;;4996088;28;20053;-70
2022/09/26 03:04:09;;;;;;;7.78;3.78;;;10.80;99.90;;;;;;4996912;28;20034;-69
2022/09/26 03:06:41;;;;;;;10.20;3.85;;;10.80;99.90;;;;;;4996495;28;20459;-70
2022/09/26 03:09:09;;;;;;;7.30;3.40;;;10.80;99.90;;;;;;4996651;28;20122;-70
2022/09/26 03:11:35;;;;;;;8.27;4.25;;;10.80;99.90;;;;;;4996126;28;20456;-70
2022/09/26 03:14:02;;;;;;;7.00;3.42;;;10.80;99.90;;;;;;4996430;28;20054;-69
2022/09/26 03:16:32;;;;;;;11.00;3.75;;;10.80;99.90;;;;;;4996827;28;20038;-70
2022/09/26 03:19:06;;;;;;;7.65;3.17;;;10.80;99.90;;;;;;4996391;28;20050;-71
2022/09/26 03:21:32;;;;;;;10.80;4.18;;;10.70;99.90;;;;;;4996457;28;20056;-71
2022/09/26 03:23:58;;;;;;;7.18;3.85;;;10.70;99.90;;;;;;4979310;28;20133;-70
2022/09/26 03:26:26;;;;;;;8.30;3.88;;;10.70;99.90;;;;;;4996081;28;20163;-70
2022/09/26 03:28:55;;;;;;;8.57;4.53;;;10.70;99.90;;;;;;4996565;28;20114;-71
2022/09/26 03:31:23;;;;;;;9.07;4.70;;;10.70;99.90;;;;;;4996161;28;20129;-71
2022/09/26 03:33:49;;;;;;;10.05;4.72;;;10.70;99.90;;;;;;4996478;28;20105;-69
2022/09/26 03:36:15;;;;;;;10.57;5.22;;;10.70;99.90;;;;;;4996093;28;20473;-71
2022/09/26 03:38:41;;;;;;;13.52;5.13;;;10.70;99.90;;;;;;4995871;28;20050;-71
2022/09/26 03:41:08;;;;;;;11.23;5.35;;;10.70;99.90;;;;;;4995471;28;20047;-69
2022/09/26 03:43:34;;;;;;;8.13;4.82;;;10.70;99.90;;;;;;4978294;28;20050;-71
2022/09/26 03:46:05;;;;;;;10.13;5.00;;;10.70;99.90;;;;;;4996142;28;20061;-70
2022/09/26 03:48:32;;;;;;;8.68;6.10;;;10.70;99.90;;;;;;4978672;28;20049;-70
2022/09/26 03:51:02;;;;;;;10.23;6.35;;;10.70;99.90;;;;;;4995962;28;20526;-71
2022/09/26 03:53:31;;;;;;;16.58;6.78;;;10.70;99.90;;;;;;4996011;28;20400;-71
2022/09/26 03:56:11;;;;;;;8.38;6.03;;;10.70;99.90;;;;;;4982069;28;20049;-70
2022/09/26 03:58:38;;;;;;;12.10;5.70;;;10.70;99.90;;;;;;4996003;28;20038;-69
2022/09/26 04:01:09;;;;;;;11.02;5.30;;;10.70;99.90;;;;;;4995576;28;20046;-70
2022/09/26 04:03:36;;;;;;;10.63;6.05;;;10.70;99.90;;;;;;4995528;28;20053;-70
2022/09/26 04:06:03;;;;;;;9.57;5.75;;;10.70;99.90;;;;;;4994686;28;20157;-70
2022/09/26 04:08:30;;;;;;;11.07;6.45;;;10.70;99.90;;;;;;4994784;28;20042;-69
2022/09/26 04:11:07;;;;;;;8.90;6.05;;;10.70;99.90;;;;;;4995446;28;20050;-70
2022/09/26 04:13:33;;;;;;;12.50;6.07;;;10.70;99.90;;;;;;4994982;28;20062;-70
2022/09/26 04:15:59;;;;;;;10.70;6.55;;;10.90;99.90;;;;;;4995200;28;20046;-69
2022/09/26 04:18:26;;;;;;;8.13;5.75;;;10.80;99.90;;;;;;4995436;28;20072;-69
2022/09/26 04:21:15;;;;;;;22.30;6.88;;;10.70;99.90;;;;;;4996810;28;20054;-69
2022/09/26 04:23:41;;;;;;;10.10;6.40;;;10.70;99.90;;;;;;4995340;28;20382;-71
2022/09/26 04:26:11;;;;;;;8.55;5.15;;;10.70;99.90;;;;;;4995456;28;20046;-70
2022/09/26 04:28:37;;;;;;;10.32;5.88;;;10.70;99.90;;;;;;4978445;28;20042;-69
2022/09/26 04:31:05;;;;;;;12.52;5.50;;;10.70;99.90;;;;;;4995370;28;20359;-69
2022/09/26 04:33:32;;;;;;;18.02;6.45;;;10.70;99.90;;;;;;4995693;28;20039;-70
2022/09/26 04:36:02;;;;;;;8.27;5.95;;;10.70;99.90;;;;;;4994569;28;20170;-70
2022/09/26 04:38:32;;;;;;;9.80;6.50;;;10.70;99.90;;;;;;4995734;28;20057;-70
2022/09/26 04:41:10;;;;;;;7.47;5.63;;;10.60;99.90;;;;;;4994165;28;20070;-69
2022/09/26 04:43:37;;;;;;;10.82;6.18;;;10.60;99.90;;;;;;4995134;28;20094;-69
2022/09/26 04:46:15;;;;;;;10.55;5.97;;;10.60;99.90;;;;;;4995033;28;20324;-69
2022/09/26 04:48:41;;;;;;;9.20;6.47;;;10.60;99.90;;;;;;4994741;28;20153;-70
2022/09/26 04:51:09;;;;;;;11.45;6.30;;;10.70;99.90;;;;;;4994865;28;20105;-70
2022/09/26 04:53:35;;;;;;;12.18;5.95;;;10.60;99.90;;;;;;4995213;28;20051;-71
2022/09/26 04:56:01;;;;;;;9.63;6.47;;;10.60;99.90;;;;;;4995066;28;20041;-71
2022/09/26 04:58:27;;;;;;;12.43;7.32;;;10.60;99.90;;;;;;4994358;28;20134;-70
2022/09/26 05:00:52;;;;;;;12.18;7.45;;;10.60;99.90;;;;;;4978598;28;20066;-70
2022/09/26 05:03:19;;;;;;;10.63;6.70;;;10.60;99.90;;;;;;4995459;28;20113;-69
2022/09/26 05:05:49;;;;;;;10.05;7.22;;;10.60;99.90;;;;;;4995080;28;20074;-69
2022/09/26 05:08:15;;;;;;;9.40;6.32;;;10.60;99.90;;;;;;4994863;28;20058;-69
2022/09/26 05:10:41;;;;;;;11.25;6.15;;;10.60;99.90;;;;;;4978122;28;20536;-70
2022/09/26 05:13:07;;;;;;;15.32;8.15;;;10.80;99.90;;;;;;4994318;28;20363;-71
2022/09/26 05:15:40;;;;;;;12.10;7.07;;;10.60;99.90;;;;;;4994679;28;20062;-68
2022/09/26 05:18:07;;;;;;;13.00;7.83;;;10.60;99.90;;;;;;4980804;28;20154;-70
2022/09/26 05:20:34;;;;;;;9.50;7.38;;;10.60;99.90;;;;;;4996531;28;20058;-69
2022/09/26 05:23:01;;;;;;;10.20;7.60;;;10.60;99.90;;;;;;4996109;28;20038;-70
2022/09/26 05:28:15;;;;;;;16.33;7.97;;;10.70;99.90;;;;;;4998879;28;20254;-71
2022/09/26 05:30:42;;;;;;;10.85;7.68;;;10.60;99.90;;;;;;4998465;28;20547;-71
2022/09/26 05:33:07;;;;;;;9.68;7.93;;;10.60;99.90;;;;;;4998175;28;20057;-70
2022/09/26 05:35:34;;;;;;;11.57;7.95;;;10.60;99.90;;;;;;4981594;28;20188;-69
2022/09/26 05:38:03;;;;;;;12.98;9.45;;;10.60;99.90;;;;;;4998294;28;20128;-70
2022/09/26 05:43:15;;;;;;;12.98;8.10;;;10.60;99.90;;;;;;4998205;28;20088;-69
2022/09/26 05:45:42;;;;;;;10.70;8.00;;;10.60;99.90;;;;;;4997734;28;20452;-69
2022/09/26 05:48:08;;;;;;;11.77;7.88;;;10.60;99.90;;;;;;4998145;28;20371;-71
2022/09/26 05:50:33;;;;;;;13.07;8.05;;;10.60;99.90;;;;;;4998022;28;20039;-68
2022/09/26 05:53:00;;;;;;;12.98;8.25;;;10.60;99.90;;;;;;4993117;28;20059;-70
2022/09/26 05:55:27;;;;;;;12.68;8.02;;;10.60;99.90;;;;;;4975539;28;20050;-70
2022/09/26 05:57:54;;;;;;;10.13;7.80;;;10.70;99.90;;;;;;4996741;28;20104;-71
2022/09/26 06:00:20;;;;;;;8.55;7.25;;;10.60;99.90;;;;;;4996616;28;20455;-71
2022/09/26 06:02:52;;;;;;;11.93;7.78;;;10.60;99.90;;;;;;4997117;28;20054;-70
2022/09/26 06:05:18;;;;;;;11.98;7.10;;;10.70;99.90;;;;;;4997811;28;20092;-70
2022/09/26 06:07:44;;;;;;;11.55;8.30;;;10.60;99.90;;;;;;4997491;28;20494;-70
2022/09/26 06:10:10;;;;;;;10.68;7.60;;;10.60;99.90;;;;;;4997281;28;20073;-70
2022/09/26 06:12:36;;;;;;;11.68;7.20;;;10.60;99.90;;;;;;4997669;28;20458;-70
2022/09/26 06:15:03;;;;;;;12.35;7.63;;;10.60;99.90;;;;;;4997306;28;20371;-70
2022/09/26 06:17:29;;;;;;;14.65;8.55;;;10.70;99.90;;;;;;4997393;28;20109;-70
2022/09/26 06:19:55;;;;;;;12.52;6.78;;;10.70;99.90;;;;;;4997360;28;20042;-71
2022/09/26 06:22:20;;;;;;;12.02;7.10;;;10.70;99.90;;;;;;4997285;28;20046;-71
2022/09/26 06:24:46;;;;;;;11.15;6.78;;;10.70;99.90;;;;;;4980556;28;20439;-71
2022/09/26 06:27:12;;;;;;;17.60;6.93;;;10.70;99.90;;;;;;4997022;28;20076;-70
2022/09/26 06:29:38;;;;;;;10.63;6.63;;;10.70;99.90;;;;;;4997242;28;20042;-69
2022/09/26 06:32:03;;;;;;;11.20;6.95;;;10.70;99.90;;;;;;4997048;28;20046;-71
2022/09/26 06:34:29;;;;;;;12.25;6.75;;;10.70;99.90;;;;;;4996094;28;20050;-70
2022/09/26 06:36:54;;;;;;;11.98;6.70;;;10.70;99.90;;;;;;4997280;28;20057;-70
2022/09/26 06:39:20;;;;;;;10.30;6.90;;;10.70;99.90;;;;;;4997180;28;20057;-71
2022/09/26 06:41:46;;;;;;;11.10;7.35;;;10.70;99.90;;;;;;4996619;28;20046;-72
2022/09/26 06:44:11;;;;;;;10.00;7.03;;;10.70;99.90;;;;;;4996302;28;20047;-71
2022/09/26 06:46:37;;;;;;;13.02;6.85;;;10.70;99.90;;;;;;4996899;28;20451;-72
2022/09/26 06:49:03;;;;;;;9.98;6.57;;;10.60;99.90;;;;;;4996785;28;20042;-71
2022/09/26 06:51:28;;;;;;;15.90;6.35;;;10.60;99.90;;;;;;4996901;28;20042;-70
2022/09/26 06:53:54;;;;;;;14.80;6.95;;;10.60;99.90;;;;;;4995587;28;20050;-70
2022/09/26 06:56:19;;;;;;;11.50;6.82;;;10.60;99.90;;;;;;4993267;28;20054;-70
2022/09/26 06:58:46;;;;;;;9.27;5.97;;;10.60;99.90;;;;;;4986146;28;20045;-72
2022/09/26 07:01:11;;;;;;;14.90;6.25;;;10.60;99.90;;;;;;4975833;28;20129;-71
2022/09/26 07:03:37;;;;;;;12.13;6.28;;;10.80;99.90;;;;;;4985133;28;20130;-71
2022/09/26 07:06:03;;;;;;;11.35;6.00;;;10.50;99.90;;;;;;4982726;28;20444;-70
2022/09/26 07:08:29;;;;;;;10.65;5.63;;;10.60;99.90;;;;;;4990105;28;20498;-72
2022/09/26 07:11:01;;;;;;;9.40;6.18;;;10.60;99.90;;;;;;4995341;28;20383;-71
2022/09/26 07:13:28;;;;;;;12.52;6.53;;;10.60;99.90;;;;;;4991125;28;20080;-70
2022/09/26 07:15:56;;;;;;;14.20;6.82;;;10.60;99.90;;;;;;4978880;28;20050;-71
2022/09/26 07:18:22;;;;;;;9.18;5.97;;;10.60;99.90;;;;;;4980761;28;20482;-71
2022/09/26 07:20:47;;;;;;;10.63;6.18;;;10.60;99.90;;;;;;4986194;28;20054;-72
2022/09/26 07:23:15;;;;;;;13.98;6.63;;;10.60;99.90;;;;;;4995333;28;20107;-71
2022/09/26 07:25:44;;;;;;;13.43;5.93;;;10.60;99.90;;;;;;4995104;28;20054;-71
2022/09/26 07:28:10;;;;;;;11.43;6.40;;;10.70;99.90;;;;;;4995552;28;20046;-71
2022/09/26 07:30:36;;;;;;;11.48;6.28;;;10.60;99.90;;;;;;4976125;28;20472;-71
2022/09/26 07:33:03;;;;;;;9.48;6.10;;;10.70;99.90;;;;;;4986830;28;20506;-73
2022/09/26 07:35:34;;;;;;;11.23;5.80;;;10.70;99.90;;;;;;4989077;28;20038;-72
2022/09/26 07:38:00;;;;;;;10.90;5.40;;;10.70;99.90;;;;;;4994756;28;20051;-71
2022/09/26 07:40:26;;;;;;;9.13;6.38;;;10.70;99.90;;;;;;4978606;28;20135;-70
2022/09/26 07:42:52;;;;;;;10.50;5.70;;;10.80;99.90;;;;;;4975850;28;20054;-70
2022/09/26 07:50:09;;;;;;;8.10;6.00;;;10.80;99.90;;;;;;4975492;28;20042;-69
2022/09/26 07:50:55;;;;;;;9.98;5.40;;;10.80;99.90;;;;;;4994745;28;20069;-71
2022/09/26 07:53:21;;;;;;;8.32;5.13;;;10.80;99.90;;;;;;4995107;28;20046;-70
2022/09/26 07:56:04;;;;;;;10.75;5.07;;;10.80;99.90;;;;;;4994214;28;20113;-70
2022/09/26 07:58:37;;;;;;;10.85;5.68;;;10.80;99.90;;;;;;4994520;28;20133;-70
2022/09/26 08:01:10;;;;;;;9.30;4.93;;;11.00;99.90;;;;;;4994981;28;20196;-71
2022/09/26 08:03:40;;;;;;;9.60;4.80;;;10.90;99.90;;;;;;4994902;28;20046;-69
2022/09/26 08:06:06;;;;;;;10.02;5.35;;;11.00;99.90;;;;;;4993939;28;20563;-70
2022/09/26 08:08:32;;;;;;;11.20;4.97;;;11.00;99.90;;;;;;4994180;28;20141;-69
2022/09/26 08:10:58;;;;;;;8.82;5.13;;;11.10;99.90;;;;;;4994251;28;20050;-70
2022/09/26 08:13:26;;;;;;;8.90;4.75;;;11.10;99.90;;;;;;4994383;28;20038;-68
2022/09/26 08:15:52;;;;;;;8.68;4.22;;;11.00;99.90;;;;;;4975899;28;20034;-70
2022/09/26 08:18:18;;;;;;;7.32;4.53;;;11.10;99.90;;;;;;4975357;28;20053;-71
2022/09/26 08:20:46;;;;;;;7.22;4.75;;;11.20;99.90;;;;;;4987544;28;20050;-69
2022/09/26 08:23:14;;;;;;;7.18;4.53;;;11.20;99.90;;;;;;4994626;28;20053;-70
2022/09/26 08:25:40;;;;;;;12.77;4.80;;;11.20;99.90;;;;;;4976574;28;20038;-69
2022/09/26 08:28:06;;;;;;;7.20;4.30;;;11.30;99.90;;;;;;4977450;28;20370;-72
2022/09/26 08:30:32;;;;;;;8.48;5.05;;;11.30;99.90;;;;;;4994500;28;20046;-69
2022/09/26 08:33:00;;;;;;;9.25;4.15;;;11.30;99.90;;;;;;4994847;28;20046;-72
2022/09/26 08:35:27;;;;;;;8.45;4.30;;;11.30;99.90;;;;;;4975758;28;20086;-69
2022/09/26 08:37:52;;;;;;;10.27;4.32;;;11.30;99.90;;;;;;4988489;28;20050;-69
2022/09/26 08:40:26;;;;;;;7.13;3.53;;;11.30;99.90;;;;;;4976957;28;20470;-71
2022/09/26 08:43:10;;;;;;;6.85;4.10;;;11.40;99.90;;;;;;4994253;28;20114;-69
2022/09/26 08:48:55;;;;;;;7.95;4.32;;;11.20;99.90;;;;;;4994476;28;20120;-70
2022/09/26 08:51:34;;;;;;;7.28;3.80;;;11.30;99.90;;;;;;4987736;28;20043;-69
2022/09/26 08:54:15;;;;;;;9.00;3.78;;;11.30;99.90;;;;;;4958288;28;20130;-69
2022/09/26 08:56:46;;;;;;;8.23;4.05;;;11.30;99.90;;;;;;4990378;28;20152;-70
2022/09/26 08:59:38;;;;;;;8.18;4.00;;;11.40;99.90;;;;;;4997527;28;20039;-69
2022/09/26 09:02:38;;;;;;;8.55;4.72;;;11.40;99.90;;;;;;4998172;28;20129;-71
2022/09/26 09:05:18;;;;;;;7.50;4.03;;;11.50;99.90;;;;;;4980605;28;20509;-70
2022/09/26 09:07:50;;;;;;;8.13;4.32;;;11.50;99.90;;;;;;4998252;28;20046;-71
2022/09/26 09:10:21;;;;;;;12.90;4.30;;;11.60;99.90;;;;;;4997819;28;20038;-69
2022/09/26 09:13:13;;;;;;;6.22;3.75;;;11.70;99.90;;;;;;4998202;28;20057;-69
2022/09/26 09:15:55;;;;;;;8.30;4.13;;;11.70;99.90;;;;;;4998186;28;20050;-70
2022/09/26 09:19:01;;;;;;;7.57;4.30;;;11.80;99.90;;;;;;4997965;28;20439;-70
2022/09/26 09:21:32;;;;;;;10.02;4.47;;;11.80;99.90;;;;;;4998023;28;20121;-71
2022/09/26 09:24:13;;;;;;;11.38;4.28;;;11.80;99.90;;;;;;4997978;28;20360;-71
2022/09/26 09:26:48;;;;;;;11.45;4.50;;;11.80;99.90;;;;;;4996976;28;20109;-71
2022/09/26 09:29:41;;;;;;;7.35;3.70;;;11.80;99.90;;;;;;4983889;28;20073;-70
2022/09/26 09:32:12;;;;;;;10.23;4.65;;;11.90;99.90;;;;;;4978632;28;20061;-69
2022/09/26 09:34:41;;;;;;;13.60;4.68;;;11.90;99.90;;;;;;4978570;28;20042;-70
2022/09/26 09:37:13;;;;;;;7.18;4.22;;;12.00;99.90;;;;;;4960846;28;20051;-70
2022/09/26 09:39:42;;;;;;;7.90;4.35;;;12.00;99.90;;;;;;4978348;28;20122;-70
2022/09/26 09:42:35;;;;;;;9.50;4.28;;;12.00;99.90;;;;;;4984720;28;20050;-71
2022/09/26 09:45:25;;;;;;;7.32;4.03;;;12.00;99.90;;;;;;4996339;28;20057;-70
2022/09/26 09:47:51;;;;;;;9.70;4.10;;;12.10;99.90;;;;;;4977088;28;20401;-70
2022/09/26 09:50:37;;;;;;;6.90;3.88;;;12.10;99.90;;;;;;4977638;28;20157;-70
2022/09/26 09:53:28;;;;;;;7.80;3.75;;;12.20;99.90;;;;;;4977644;28;20055;-71
2022/09/26 09:56:03;;;;;;;7.55;3.65;;;12.20;99.90;;;;;;4978640;28;20050;-71
2022/09/26 09:59:03;;;;;;;8.45;4.25;;;12.10;99.90;;;;;;4996262;28;20054;-69
2022/09/26 10:01:38;;;;;;;7.90;4.50;;;12.10;99.90;;;;;;4997034;28;20057;-70
2022/09/26 10:04:27;;;;;;;7.80;4.25;;;12.10;99.90;;;;;;4996086;28;20062;-70
2022/09/26 10:06:54;;;;;;;9.73;4.00;;;12.10;99.90;;;;;;4996720;28;20069;-70
2022/09/26 10:09:35;;;;;;;10.05;4.50;;;12.10;99.90;;;;;;4996463;28;20057;-70
2022/09/26 10:12:03;;;;;;;11.00;4.75;;;12.10;99.90;;;;;;4979258;28;20078;-69
2022/09/26 10:14:37;;;;;;;6.53;4.05;;;12.10;99.90;;;;;;4979841;28;20046;-72
2022/09/26 10:17:09;;;;;;;9.82;4.75;;;12.10;99.90;;;;;;4996239;28;20118;-69
2022/09/26 10:19:39;;;;;;;8.10;4.00;;;12.20;99.90;;;;;;4996478;28;20083;-70
2022/09/26 10:22:23;;;;;;;8.68;5.10;;;12.30;99.90;;;;;;4996426;28;20076;-70
2022/09/26 10:24:52;;;;;;;8.75;4.72;;;12.20;99.90;;;;;;4995811;28;20477;-70
2022/09/26 10:27:36;;;;;;;7.80;4.50;;;12.30;99.90;;;;;;4996067;28;20526;-70
2022/09/26 10:30:25;;;;;;;10.20;4.45;;;12.30;99.90;;;;;;4979586;28;20085;-69
2022/09/26 10:32:59;;;;;;;11.05;5.13;;;12.30;99.90;;;;;;4959391;28;20063;-71
2022/09/26 10:35:40;;;;;;;10.30;5.47;;;12.30;99.90;;;;;;4977249;28;20050;-70
2022/09/26 10:38:17;;;;;;;8.02;4.00;;;12.30;99.90;;;;;;4976768;28;20089;-70
2022/09/26 10:40:57;;;;;;;9.38;4.72;;;12.30;99.90;;;;;;4976770;28;20045;-69
2022/09/26 10:43:36;;;;;;;9.85;4.47;;;12.40;99.90;;;;;;4976330;28;20543;-69
2022/09/26 10:46:14;;;;;;;14.55;5.25;;;12.30;99.90;;;;;;4986121;28;20137;-70
2022/09/26 10:48:50;;;;;;;9.65;5.63;;;12.50;99.90;;;;;;4995869;28;20128;-70
2022/09/26 10:51:22;;;;;;;9.43;5.07;;;12.30;99.90;;;;;;4978812;28;20078;-69
2022/09/26 10:53:51;;;;;;;9.20;4.55;;;12.40;99.90;;;;;;4963583;28;20409;-69
2022/09/26 10:56:31;;;;;;;12.52;5.30;;;12.30;99.90;;;;;;4959748;28;20494;-69
2022/09/26 10:59:04;;;;;;;13.95;5.60;;;12.50;99.90;;;;;;4992358;28;20375;-71
2022/09/26 11:01:37;;;;;;;11.75;4.07;;;12.40;99.90;;;;;;4995828;28;20462;-69
2022/09/26 11:07:25;;;;;;;7.97;4.82;;;12.40;99.90;;;;;;4995955;28;20093;-70
2022/09/26 11:09:52;;;;;;;10.25;4.85;;;12.40;99.90;;;;;;4982155;28;20057;-70
2022/09/26 11:12:38;;;;;;;9.52;5.68;;;12.30;99.90;;;;;;4989815;28;20117;-72
2022/09/26 11:15:12;;;;;;;7.00;5.10;;;12.30;99.90;;;;;;4978293;28;20082;-71
2022/09/26 11:17:50;;;;;;;9.77;5.28;;;12.30;99.90;;;;;;4995675;28;20042;-71
2022/09/26 11:20:37;;;;;;;8.68;5.28;;;12.30;99.90;;;;;;4994463;28;20046;-69
2022/09/26 11:23:18;;;;;;;7.00;4.68;;;12.30;99.90;;;;;;4994885;28;20068;-69
2022/09/26 11:26:05;;;;;;;7.28;4.93;;;12.30;99.90;;;;;;4995461;28;20363;-69
2022/09/26 11:28:54;;;;;;;8.45;5.47;;;12.30;99.90;;;;;;4978386;28;20062;-69
2022/09/26 11:31:28;;;;;;;8.35;4.88;;;12.30;99.90;;;;;;4994738;28;20052;-70
2022/09/26 11:33:58;;;;;;;7.38;4.85;;;12.30;99.90;;;;;;4977963;28;20467;-69
2022/09/26 11:36:50;;;;;;;9.32;5.57;;;12.40;99.90;;;;;;4975748;28;20331;-68
2022/09/26 11:39:16;;;;;;;8.00;4.80;;;12.30;99.90;;;;;;4975858;28;20042;-69
2022/09/26 11:42:04;;;;;;;8.10;4.45;;;12.30;99.90;;;;;;4975351;28;20043;-69
2022/09/26 11:45:03;;;;;;;5.78;4.05;;;12.30;99.90;;;;;;4975806;28;20066;-68
2022/09/26 11:47:38;;;;;;;10.75;4.80;;;12.30;99.90;;;;;;4977294;28;20101;-70
2022/09/26 11:50:48;;;;;;;8.48;4.10;;;12.30;99.90;;;;;;4994463;28;20441;-67
2022/09/26 11:53:38;;;;;;;5.97;4.47;;;12.30;99.90;;;;;;4957276;28;20077;-67
2022/09/26 11:56:26;;;;;;;6.72;4.18;;;12.30;99.90;;;;;;4977441;28;20108;-70
2022/09/26 11:59:21;;;;;;;6.13;4.25;;;12.30;99.90;;;;;;4994754;28;20046;-69
2022/09/26 12:02:23;;;;;;;6.97;3.97;;;12.30;99.90;;;;;;4994540;28;20058;-68
2022/09/26 12:05:15;;;;;;;7.22;3.83;;;12.30;99.90;;;;;;4994774;28;20049;-69
2022/09/26 12:07:53;;;;;;;7.20;3.90;;;12.20;99.90;;;;;;4994569;28;20101;-69
2022/09/26 12:10:31;;;;;;;6.38;3.60;;;12.30;99.90;;;;;;4994132;28;20482;-70
2022/09/26 12:13:08;;;;;;;5.78;4.10;;;12.30;99.90;;;;;;4994426;28;20047;-71
2022/09/26 12:16:00;;;;;;;6.65;3.90;;;12.40;99.90;;;;;;4994287;28;20042;-69
2022/09/26 12:18:52;;;;;;;4.57;3.33;;;12.40;99.90;;;;;;4994363;28;20050;-68
2022/09/26 12:21:20;;;;;;;7.40;3.97;;;12.40;99.90;;;;;;4994233;28;20116;-68
2022/09/26 12:23:57;;;;;;;6.18;4.07;;;12.40;99.90;;;;;;4994588;28;20359;-69
2022/09/26 12:26:35;;;;;;;7.68;4.40;;;12.30;99.90;;;;;;4994588;28;20034;-68
2022/09/26 12:29:44;;;;;;;5.38;3.45;;;12.40;99.90;;;;;;4994749;28;20046;-69
2022/09/26 12:32:22;;;;;;;6.20;3.50;;;12.40;99.90;;;;;;4994106;28;20072;-69
2022/09/26 12:35:02;;;;;;;4.93;3.58;;;12.40;99.90;;;;;;4998559;28;20433;-67
2022/09/26 12:37:51;;;;;;;6.13;3.65;;;12.50;99.90;;;;;;4998802;28;20370;-71
2022/09/26 12:40:34;;;;;;;4.82;3.80;;;12.40;99.90;;;;;;4998544;28;20516;-71
2022/09/26 12:43:52;;;;;;;4.03;3.15;;;12.40;99.90;;;;;;4998643;28;20065;-70
2022/09/26 12:46:54;;;;;;;5.63;3.63;;;12.50;99.90;;;;;;4998780;28;20034;-70
2022/09/26 12:49:35;;;;;;;5.95;3.65;;;12.50;99.90;;;;;;4999114;28;20406;-72
2022/09/26 12:52:36;;;;;;;4.97;3.72;;;12.60;99.90;;;;;;4998420;28;20046;-72
2022/09/26 12:55:48;;;;;;;4.80;3.80;;;12.60;99.90;;;;;;4981973;28;20046;-70
2022/09/26 12:58:44;;;;;;;4.55;3.40;;;12.70;99.90;;;;;;4999059;28;20046;-70
2022/09/26 13:01:42;;;;;;;5.82;3.00;;;12.70;99.90;;;;;;4998809;28;20362;-72
2022/09/26 13:04:46;;;;;;;5.30;2.97;;;12.80;99.90;;;;;;4998622;28;20042;-68
2022/09/26 13:07:35;;;;;;;4.82;3.00;;;12.70;99.90;;;;;;4912181;28;20473;-69
2022/09/26 13:10:14;;;;;;;4.88;3.30;;;12.80;99.90;;;;;;4998561;28;20138;-70
2022/09/26 13:12:58;;;;;;;7.22;3.67;;;12.70;99.90;;;;;;4998957;28;20456;-72
2022/09/26 13:15:56;;;;;;;6.28;3.30;;;12.80;99.90;;;;;;4998746;28;20046;-70
2022/09/26 13:18:28;;;;;;;5.00;3.45;;;12.80;99.90;;;;;;4998322;28;20061;-70
2022/09/26 13:21:01;;;;;;;9.15;3.38;;;12.90;99.90;;;;;;4998171;28;20062;-68
2022/09/26 13:23:33;;;;;;;;;;;12.90;99.90;;;;;;4998870;28;20137;-68
2022/09/26 13:26:13;;;;;;;6.15;3.28;;;12.90;99.90;;;;;;4998284;28;19921;-69
2022/09/26 13:29:02;;;;;;;5.45;2.90;;;13.00;99.90;;;;;;4998306;28;20070;-68
2022/09/26 13:31:43;;;;;;;10.57;2.60;;;13.00;99.90;;;;;;4998418;28;20046;-67
2022/09/26 13:34:28;;;;;;;3.17;2.30;;;13.10;99.90;;;;;;4995039;28;20101;-68